Home > Products > Valid Products > TAF

000
FTUS46 KPDT 071120
TAFPDT
TAF
KPDT 071120Z 0712/0812 22007KT P6SM SCT150 SCT300
     FM071800 30010KT P6SM SCT150 SCT300
     FM080600 23007KT P6SM FEW120 SCT250
     FM080900 14005KT P6SM SCT150 SCT250=



000
FTUS46 KPDT 071120
TAFALW
TAF
KALW 071120Z 0712/0812 18010KT P6SM SCT300
     FM071600 23010KT P6SM SCT300
     FM080600 13006KT P6SM SCT300=



000
FTUS46 KPDT 071120
TAFYKM
TAF
KYKM 071120Z 0712/0812 30009KT P6SM SCT300=



000
FTUS46 KPDT 071120
TAFRDM
TAF
KRDM 071120Z 0712/0812 19005KT P6SM SCT120 SCT250
     FM071800 33008KT P6SM SCT080 BKN120
     FM072200 34012G19KT P6SM VCSH BKN080 BKN120
     FM080400 VRB04KT P6SM SCT120 SCT250=



000
FTUS46 KPDT 071120
TAFALW
TAF
KALW 071120Z 0712/0812 18010KT P6SM SCT300
     FM071600 23010KT P6SM SCT300
     FM080600 13006KT P6SM SCT300=



000
FTUS46 KPDT 071120
TAFDLS
TAF
KDLS 071120Z 0712/0812 31014KT P6SM SCT150
     FM071800 31014G20KT P6SM SCT150 SCT300
     FM080600 32012KT P6SM SCT120 SCT250=



000
FTUS46 KPDT 071120
TAFYKM
TAF
KYKM 071120Z 0712/0812 30009KT P6SM SCT300=



000
FTUS46 KPDT 071120
TAFPSC
TAF
KPSC 071120Z 0712/0812 VRB05KT P6SM SCT300
     FM071700 26008KT P6SM SCT300
     FM080300 VRB05KT P6SM SCT300=



000
FTUS46 KPDT 071120
TAFDLS
TAF
KDLS 071120Z 0712/0812 31014KT P6SM SCT150
     FM071800 31014G20KT P6SM SCT150 SCT300
     FM080600 32012KT P6SM SCT120 SCT250=



000
FTUS46 KPDT 071120
TAFRDM
TAF
KRDM 071120Z 0712/0812 19005KT P6SM SCT120 SCT250
     FM071800 33008KT P6SM SCT080 BKN120
     FM072200 34012G19KT P6SM VCSH BKN080 BKN120
     FM080400 VRB04KT P6SM SCT120 SCT250=



000
FTUS46 KPDT 071120
TAFPSC
TAF
KPSC 071120Z 0712/0812 VRB05KT P6SM SCT300
     FM071700 26008KT P6SM SCT300
     FM080300 VRB05KT P6SM SCT300=



000
FTUS46 KPDT 071120
TAFPDT
TAF
KPDT 071120Z 0712/0812 22007KT P6SM SCT150 SCT300
     FM071800 30010KT P6SM SCT150 SCT300
     FM080600 23007KT P6SM FEW120 SCT250
     FM080900 14005KT P6SM SCT150 SCT250=



000
FTUS46 KPDT 070802 AAA
TAFALW
TAF AMD
KALW 070802Z 0708/0806 18010KT P6SM SKC
     FM071700 23009KT P6SM SKC=



000
FTUS46 KPDT 070606 AAA
TAFPDT
TAF AMD
KPDT 070606Z 0706/0806 28010G20KT P6SM SKC
     FM070800 16005KT P6SM SKC
     FM071800 30009KT P6SM SKC=



000
FTUS46 KPDT 070606 AAA
TAFPDT
TAF AMD
KPDT 070606Z 0706/0806 28010G20KT P6SM SKC
     FM070800 16005KT P6SM SKC
     FM071800 30009KT P6SM SKC=



000
FTUS46 KPDT 070528
TAFRDM
TAF
KRDM 070528Z 0706/0806 VRB05KT P6SM SCT120
     FM071800 33008KT P6SM SCT060 BKN120
      TEMPO 0722/0802 -TSRA BKN080CB=



000
FTUS46 KPDT 070528
TAFYKM
TAF
KYKM 070528Z 0706/0806 30009KT P6SM SKC=



000
FTUS46 KPDT 070528
TAFDLS
TAF
KDLS 070528Z 0706/0806 31011KT P6SM SCT200
     FM071700 31016KT P6SM SKC=



000
FTUS46 KPDT 070528
TAFALW
TAF
KALW 070528Z 0706/0806 14006KT P6SM SKC
     FM071700 23009KT P6SM SKC=



000
FTUS46 KPDT 070528
TAFPDT
TAF
KPDT 070528Z 0706/0806 28010KT P6SM SKC
     FM070800 16005KT P6SM SKC
     FM071800 30009KT P6SM SKC=



000
FTUS46 KPDT 070528
TAFPSC
TAF
KPSC 070528Z 0706/0806 VRB05KT P6SM SKC
     FM071700 26008KT P6SM SKC=



000
FTUS46 KPDT 070140 AAA
TAFYKM
TAF AMD
KYKM 070140Z 0702/0724 33009KT P6SM SKC
     FM072000 09005KT P6SM SKC=



000
FTUS46 KPDT 062334 CCA
TAFRDM
TAF COR
KRDM 062334Z 0700/0724 32012G18KT P6SM VCTS SCT090CB BKN180
      TEMPO 0700/0702 VRB15G20KT -TSRA SCT060CB BKN090CB
     FM070300 VRB05KT P6SM FEW100 SCT250
     FM071000 16004KT P6SM SCT250
     FM071900 34011KT P6SM SCT300=



000
FTUS46 KPDT 062334 CCA
TAFRDM
TAF COR
KRDM 062334Z 0700/0724 32012G18KT P6SM VCTS SCT090CB BKN180
      TEMPO 0700/0702 VRB15G20KT -TSRA SCT060CB BKN090CB
     FM070300 VRB05KT P6SM FEW100 SCT250
     FM071000 16004KT P6SM SCT250
     FM071900 34011KT P6SM SCT300=



000
FTUS46 KPDT 062320
TAFYKM
TAF
KYKM 062320Z 0700/0724 11005KT P6SM FEW090
     FM070200 33010KT P6SM SCT300
     FM071200 28006KT P6SM SCT300
     FM072000 09005KT P6SM SKC=



000
FTUS46 KPDT 062320
TAFPSC
TAF
KPSC 062320Z 0700/0724 28006KT P6SM FEW200
     FM070800 21004KT P6SM FEW120 SCT300
     FM071900 26006KT P6SM SKC=



000
FTUS46 KPDT 062320
TAFRDM
TAF
KRDM 062320Z 0700/0724 32012G18KT P6SM VCTS SCT090CB BKN180
      TEMPO 0700/0702 6SM -TSRA SCT060CB BKN090CB
     FM070300 VRB05KT P6SM FEW100 SCT250
     FM071000 16004KT P6SM SCT250
     FM071900 34011KT P6SM SCT300=



000
FTUS46 KPDT 062320
TAFPDT
TAF
KPDT 062320Z 0700/0724 31011KT P6SM SKC
     FM070500 23010KT P6SM SCT300
     FM071000 18007KT P6SM SCT100 SCT250
     FM071600 26008KT P6SM FEW300
     FM072000 29010G17KT P6SM SKC=



000
FTUS46 KPDT 062320
TAFDLS
TAF
KDLS 062320Z 0700/0724 32015G24KT P6SM FEW120
     FM070700 31011KT P6SM SCT300
     FM071500 32011G17KT P6SM BKN300
     FM071900 32015G24KT P6SM FEW300=



000
FTUS46 KPDT 062320
TAFALW
TAF
KALW 062320Z 0700/0724 23007KT P6SM SKC
     FM070400 13010KT P6SM SCT300
     FM070900 18010KT P6SM FEW100 SCT250
     FM071500 22009KT P6SM SCT300=



000
FTUS46 KPDT 062231 AAA
TAFRDM
TAF AMD
KRDM 062231Z 0623/0718 32012G18KT P6SM VCTS SCT090CB BKN180
      TEMPO 0700/0702 6SM -TSRA SCT060CB BKN090CB
     FM070300 VRB05KT P6SM FEW100 SCT250
     FM071000 16004KT P6SM SCT250=



000
FTUS46 KPDT 062231 AAA
TAFRDM
TAF AMD
KRDM 062231Z 0623/0718 32012G18KT P6SM VCTS SCT090CB BKN180
      TEMPO 0700/0702 6SM -TSRA SCT060CB BKN090CB
     FM070300 VRB05KT P6SM FEW100 SCT250
     FM071000 16004KT P6SM SCT250=



000
FTUS46 KPDT 061729
TAFALW
TAF
KALW 061729Z 0618/0718 23007KT P6SM SKC
     FM070400 13009KT P6SM SCT300
     FM070900 18008KT P6SM FEW100 SCT250
     FM071500 22009KT P6SM SCT300=



000
FTUS46 KPDT 061729
TAFYKM
TAF
KYKM 061729Z 0618/0718 VRB05KT P6SM SKC
     FM061900 15005KT P6SM FEW100 SCT300
     FM070200 30010KT P6SM SCT300
     FM071200 28006KT P6SM SCT300=



000
FTUS46 KPDT 061729
TAFDLS
TAF
KDLS 061729Z 0618/0718 33010KT P6SM FEW120
     FM062300 32015G22KT P6SM SCT300
     FM070800 31011KT P6SM BKN300
     FM071500 32011G17KT P6SM SCT300=



000
FTUS46 KPDT 061729
TAFPDT
TAF
KPDT 061729Z 0618/0718 31010KT P6SM SKC
     FM070500 21009KT P6SM SCT300
     FM071000 17008KT P6SM SCT100 SCT250
     FM071600 27008KT P6SM SCT300=



000
FTUS46 KPDT 061729
TAFRDM
TAF
KRDM 061729Z 0618/0718 33008KT P6SM FEW120 SCT250
     FM062300 32012G18KT P6SM VCSH SCT100 BKN180
     FM070500 VRB05KT P6SM FEW100 SCT250
     FM071000 16004KT P6SM SCT250=



000
FTUS46 KPDT 061729
TAFPSC
TAF
KPSC 061729Z 0618/0718 35005KT P6SM FEW300
     FM070000 VRB05KT P6SM FEW300
     FM070800 22004KT P6SM FEW120 SCT300=



000
FTUS46 KPDT 061120
TAFDLS
TAF
KDLS 061120Z 0612/0712 32008KT P6SM SKC
     FM070000 32014G20KT P6SM SCT300
     FM070800 32010KT P6SM SCT100 SCT250=



000
FTUS46 KPDT 061120
TAFRDM
TAF
KRDM 061120Z 0612/0712 VRB05KT P6SM FEW100
     FM061800 32008KT P6SM FEW080 SCT250
     FM062300 32012G17KT P6SM VCSH SCT090 BKN150
     FM070500 VRB03KT P6SM SCT100 SCT250=



000
FTUS46 KPDT 061120
TAFPSC
TAF
KPSC 061120Z 0612/0712 35003KT P6SM SKC
     FM061800 35004KT P6SM SCT300
     FM070600 VRB03KT P6SM SCT100 SCT300=



000
FTUS46 KPDT 061120
TAFYKM
TAF
KYKM 061120Z 0612/0712 28007KT P6SM SKC
     FM061900 15005KT P6SM FEW100 SCT300
     FM070400 29007KT P6SM SCT300=



000
FTUS46 KPDT 061120
TAFPDT
TAF
KPDT 061120Z 0612/0712 15007KT P6SM SKC
     FM061800 32007KT P6SM SKC
     FM070400 20009KT P6SM SCT300
     FM070900 16008KT P6SM SCT100 SCT250=



000
FTUS46 KPDT 061120
TAFYKM
TAF
KYKM 061120Z 0612/0712 28007KT P6SM SKC
     FM061900 15005KT P6SM FEW100 SCT300
     FM070400 29007KT P6SM SCT300=



000
FTUS46 KPDT 061120
TAFALW
TAF
KALW 061120Z 0612/0712 12005KT P6SM SKC
     FM061500 23007KT P6SM SKC
     FM070400 12007KT P6SM SCT300
     FM070900 16007KT P6SM SCT100 SCT250=



000
FTUS46 KPDT 061120
TAFPSC
TAF
KPSC 061120Z 0612/0712 35003KT P6SM SKC
     FM061800 35004KT P6SM SCT300
     FM070600 VRB03KT P6SM SCT100 SCT300=



000
FTUS46 KPDT 061120
TAFDLS
TAF
KDLS 061120Z 0612/0712 32008KT P6SM SKC
     FM070000 32014G20KT P6SM SCT300
     FM070800 32010KT P6SM SCT100 SCT250=



000
FTUS46 KPDT 061120
TAFRDM
TAF
KRDM 061120Z 0612/0712 VRB05KT P6SM FEW100
     FM061800 32008KT P6SM FEW080 SCT250
     FM062300 32012G17KT P6SM VCSH SCT090 BKN150
     FM070500 VRB03KT P6SM SCT100 SCT250=



000
FTUS46 KPDT 061120
TAFALW
TAF
KALW 061120Z 0612/0712 12005KT P6SM SKC
     FM061500 23007KT P6SM SKC
     FM070400 12007KT P6SM SCT300
     FM070900 16007KT P6SM SCT100 SCT250=



000
FTUS46 KPDT 061120
TAFPDT
TAF
KPDT 061120Z 0612/0712 15007KT P6SM SKC
     FM061800 32007KT P6SM SKC
     FM070400 20009KT P6SM SCT300
     FM070900 16008KT P6SM SCT100 SCT250=



000
FTUS46 KPDT 060531
TAFDLS
TAF
KDLS 060531Z 0606/0706 32008KT P6SM SKC
     FM061800 32008KT P6SM SKC
     FM062200 32014KT P6SM FEW100
     FM070400 32010KT P6SM SCT250=



000
FTUS46 KPDT 060531
TAFYKM
TAF
KYKM 060531Z 0606/0706 28008KT P6SM SKC
     FM061900 VRB06KT P6SM SKC
     FM070400 25007KT P6SM SKC=



000
FTUS46 KPDT 060531
TAFRDM
TAF
KRDM 060531Z 0606/0706 VRB06KT P6SM FEW100
     FM060800 17007KT P6SM FEW250
     FM061800 35008KT P6SM FEW080 SCT250
     FM070400 17007KT P6SM SCT250=



000
FTUS46 KPDT 060531
TAFPDT
TAF
KPDT 060531Z 0606/0706 15007KT P6SM SKC
     FM061800 32007KT P6SM SKC
     FM070400 15007KT P6SM SKC=



000
FTUS46 KPDT 060531
TAFPSC
TAF
KPSC 060531Z 0606/0706 VRB06KT P6SM SKC
     FM061800 30007KT P6SM SKC
     FM070400 20007KT P6SM SKC=



000
FTUS46 KPDT 060531
TAFALW
TAF
KALW 060531Z 0606/0706 12007KT P6SM SKC
     FM061800 30007KT P6SM SKC
     FM070400 12007KT P6SM SKC=



000
FTUS46 KPDT 060531
TAFDLS
TAF
KDLS 060531Z 0606/0706 32008KT P6SM SKC
     FM061800 32008KT P6SM SKC
     FM062200 32014KT P6SM FEW100
     FM070400 32010KT P6SM SCT250=



000
FTUS46 KPDT 060531
TAFPSC
TAF
KPSC 060531Z 0606/0706 VRB06KT P6SM SKC
     FM061800 30007KT P6SM SKC
     FM070400 20007KT P6SM SKC=



000
FTUS46 KPDT 060531
TAFYKM
TAF
KYKM 060531Z 0606/0706 28008KT P6SM SKC
     FM061900 VRB06KT P6SM SKC
     FM070400 25007KT P6SM SKC=



000
FTUS46 KPDT 060531
TAFALW
TAF
KALW 060531Z 0606/0706 12007KT P6SM SKC
     FM061800 30007KT P6SM SKC
     FM070400 12007KT P6SM SKC=



000
FTUS46 KPDT 060531
TAFRDM
TAF
KRDM 060531Z 0606/0706 VRB06KT P6SM FEW100
     FM060800 17007KT P6SM FEW250
     FM061800 35008KT P6SM FEW080 SCT250
     FM070400 17007KT P6SM SCT250=



000
FTUS46 KPDT 060531
TAFPDT
TAF
KPDT 060531Z 0606/0706 15007KT P6SM SKC
     FM061800 32007KT P6SM SKC
     FM070400 15007KT P6SM SKC=



000
FTUS46 KPDT 052320
TAFDLS
TAF
KDLS 052320Z 0600/0624 33011KT P6SM SKC
     FM060300 32007KT P6SM SKC
     FM061800 35006KT P6SM SKC=



000
FTUS46 KPDT 052320
TAFPDT
TAF
KPDT 052320Z 0600/0624 33011KT P6SM FEW140
     FM060400 14008KT P6SM SKC
     FM061500 23005KT P6SM SKC
     FM061900 31008KT P6SM SKC=



000
FTUS46 KPDT 052320
TAFRDM
TAF
KRDM 052320Z 0600/0624 33010KT P6SM FEW070 SCT200
     FM060400 32005KT P6SM FEW200
     FM060800 VRB03KT P6SM SKC
     FM061800 35008KT P6SM FEW080 SCT200=



000
FTUS46 KPDT 052320
TAFYKM
TAF
KYKM 052320Z 0600/0624 VRB06KT P6SM SKC
     FM060200 27006KT P6SM SKC
     FM061900 VRB05KT P6SM SKC=



000
FTUS46 KPDT 052320
TAFPSC
TAF
KPSC 052320Z 0600/0624 34012KT P6SM SKC
     FM060600 VRB04KT P6SM SKC=



000
FTUS46 KPDT 052320
TAFALW
TAF
KALW 052320Z 0600/0624 23011KT P6SM FEW140
     FM060300 11007KT P6SM SKC
     FM061500 22005KT P6SM SKC
     FM061900 25006KT P6SM SKC=



000
FTUS46 KPDT 052015 AAA
TAFALW
TAF AMD
KALW 052015Z 0520/0618 22010KT P6SM SKC
     FM060000 31011G18KT P6SM FEW140
     FM060300 11007KT P6SM SKC
     FM061500 22005KT P6SM SKC=



000
FTUS46 KPDT 051720
TAFYKM
TAF
KYKM 051720Z 0518/0618 VRB06KT P6SM SKC
     FM060200 27006KT P6SM SKC=



000
FTUS46 KPDT 051720
TAFRDM
TAF
KRDM 051720Z 0518/0618 VRB04KT P6SM SCT200
     FM051900 33010KT P6SM SCT200
     FM060400 32005KT P6SM FEW200
     FM060800 VRB03KT P6SM SKC=



000
FTUS46 KPDT 051720
TAFALW
TAF
KALW 051720Z 0518/0618 31011G18KT P6SM FEW140
     FM060300 11007KT P6SM SKC
     FM061500 22005KT P6SM SKC=



000
FTUS46 KPDT 051720
TAFDLS
TAF
KDLS 051720Z 0518/0618 30008KT P6SM FEW250
     FM052000 33011KT P6SM SKC
     FM060300 32007KT P6SM SKC=



000
FTUS46 KPDT 051720
TAFPSC
TAF
KPSC 051720Z 0518/0618 34010KT P6SM SCT250
     FM060600 VRB04KT P6SM SKC=



000
FTUS46 KPDT 051720
TAFPDT
TAF
KPDT 051720Z 0518/0618 31008KT P6SM FEW140
     FM052200 33011KT P6SM FEW140
     FM060400 14008KT P6SM SKC
     FM061500 23005KT P6SM SKC=



000
FTUS46 KPDT 051720
TAFPDT
TAF
KPDT 051720Z 0518/0618 31008KT P6SM FEW140
     FM052200 33011KT P6SM FEW140
     FM060400 14008KT P6SM SKC
     FM061500 23005KT P6SM SKC=



000
FTUS46 KPDT 051720
TAFDLS
TAF
KDLS 051720Z 0518/0618 30008KT P6SM FEW250
     FM052000 33011KT P6SM SKC
     FM060300 32007KT P6SM SKC=



000
FTUS46 KPDT 051126
TAFPSC
TAF
KPSC 051126Z 0512/0612 34010KT P6SM SCT250=



000
FTUS46 KPDT 051126
TAFALW
TAF
KALW 051126Z 0512/0612 18011KT P6SM SCT250
     FM051500 22008KT P6SM SCT250
     FM052100 31011G18KT P6SM FEW140
     FM060300 11007KT P6SM SKC=



000
FTUS46 KPDT 051126
TAFALW
TAF
KALW 051126Z 0512/0612 18011KT P6SM SCT250
     FM051500 22008KT P6SM SCT250
     FM052100 31011G18KT P6SM FEW140
     FM060300 11007KT P6SM SKC=



000
FTUS46 KPDT 051126
TAFDLS
TAF
KDLS 051126Z 0512/0612 30008KT P6SM FEW250
     FM051600 33011KT P6SM SKC
     FM060300 32007KT P6SM SKC=



000
FTUS46 KPDT 051126
TAFRDM
TAF
KRDM 051126Z 0512/0612 VRB04KT P6SM SCT200
     FM051800 33010KT P6SM SCT200
     FM060400 32005KT P6SM FEW200
     FM060800 VRB03KT P6SM SKC=



000
FTUS46 KPDT 051126
TAFYKM
TAF
KYKM 051126Z 0512/0612 31007KT P6SM FEW250
     FM051600 VRB06KT P6SM SKC
     FM060200 27006KT P6SM SKC=



000
FTUS46 KPDT 051126
TAFPDT
TAF
KPDT 051126Z 0512/0612 24009KT P6SM SCT250
     FM051800 31008KT P6SM FEW140
     FM052200 33011KT P6SM FEW140
     FM060400 14008KT P6SM SKC=



000
FTUS46 KPDT 051126
TAFPSC
TAF
KPSC 051126Z 0512/0612 34010KT P6SM SCT250=



000
FTUS46 KPDT 051126
TAFPDT
TAF
KPDT 051126Z 0512/0612 24009KT P6SM SCT250
     FM051800 31008KT P6SM FEW140
     FM052200 33011KT P6SM FEW140
     FM060400 14008KT P6SM SKC=



000
FTUS46 KPDT 051126
TAFDLS
TAF
KDLS 051126Z 0512/0612 30008KT P6SM FEW250
     FM051600 33011KT P6SM SKC
     FM060300 32007KT P6SM SKC=



000
FTUS46 KPDT 051126
TAFRDM
TAF
KRDM 051126Z 0512/0612 VRB04KT P6SM SCT200
     FM051800 33010KT P6SM SCT200
     FM060400 32005KT P6SM FEW200
     FM060800 VRB03KT P6SM SKC=



000
FTUS46 KPDT 051126
TAFYKM
TAF
KYKM 051126Z 0512/0612 31007KT P6SM FEW250
     FM051600 VRB06KT P6SM SKC
     FM060200 27006KT P6SM SKC=



000
FTUS46 KPDT 051024 AAA
TAFALW
TAF AMD
KALW 051024Z 0510/0606 17009KT P6SM SCT250
     FM051500 22008KT P6SM FEW140
     FM052100 31011G18KT P6SM FEW140
     FM060300 36007KT P6SM SKC=



000
FTUS46 KPDT 051023 AAA
TAFYKM
TAF AMD
KYKM 051023Z 0510/0606 33010KT P6SM FEW250
     FM051900 12006KT P6SM SKC
     FM060200 27006KT P6SM SKC=



000
FTUS46 KPDT 050530 CCA
TAFDLS
TAF COR
KDLS 050530Z 0506/0606 29011G19KT P6SM SCT250
     FM050800 30008KT P6SM FEW250
     FM051600 33011KT P6SM SKC
     FM060300 32007KT P6SM SKC=



000
FTUS46 KPDT 050520
TAFALW
TAF
KALW 050520Z 0506/0606 14007KT P6SM SCT250
     FM051500 22008KT P6SM FEW140
     FM052100 31011G18KT P6SM FEW140
     FM060300 36007KT P6SM SKC=



000
FTUS46 KPDT 050520
TAFPSC
TAF
KPSC 050520Z 0506/0606 30010KT P6SM SCT250
     FM051200 36010KT P6SM SKC=



000
FTUS46 KPDT 050520
TAFDLS
TAF
KDLS 050520Z 0506/0606 32008KT P6SM SCT250
     FM050800 30008KT P6SM FEW250
     FM051600 33011KT P6SM SKC
     FM060300 32007KT P6SM SKC=



000
FTUS46 KPDT 050520
TAFDLS
TAF
KDLS 050520Z 0506/0606 32008KT P6SM SCT250
     FM050800 30008KT P6SM FEW250
     FM051600 33011KT P6SM SKC
     FM060300 32007KT P6SM SKC=



000
FTUS46 KPDT 050520
TAFPDT
TAF
KPDT 050520Z 0506/0606 28009KT P6SM FEW250
     FM051300 16005KT P6SM FEW140
     FM051800 31008KT P6SM FEW140
     FM052200 35012KT P6SM FEW140
     FM060300 03008KT P6SM SKC=



000
FTUS46 KPDT 050520
TAFYKM
TAF
KYKM 050520Z 0506/0606 33012G20KT P6SM FEW250
     FM051900 12006KT P6SM SKC
     FM060200 27006KT P6SM SKC=



000
FTUS46 KPDT 050520
TAFALW
TAF
KALW 050520Z 0506/0606 14007KT P6SM SCT250
     FM051500 22008KT P6SM FEW140
     FM052100 31011G18KT P6SM FEW140
     FM060300 36007KT P6SM SKC=



000
FTUS46 KPDT 050520
TAFRDM
TAF
KRDM 050520Z 0506/0606 30005KT P6SM SCT200
     FM050900 16005KT P6SM SCT200
     FM051800 33010KT P6SM SCT200
     FM060400 32005KT P6SM FEW200=



000
FTUS46 KPDT 050520
TAFRDM
TAF
KRDM 050520Z 0506/0606 30005KT P6SM SCT200
     FM050900 16005KT P6SM SCT200
     FM051800 33010KT P6SM SCT200
     FM060400 32005KT P6SM FEW200=



000
FTUS46 KPDT 050520
TAFPSC
TAF
KPSC 050520Z 0506/0606 30010KT P6SM SCT250
     FM051200 36010KT P6SM SKC=



000
FTUS46 KPDT 050520
TAFYKM
TAF
KYKM 050520Z 0506/0606 33012G20KT P6SM FEW250
     FM051900 12006KT P6SM SKC
     FM060200 27006KT P6SM SKC=



000
FTUS46 KPDT 050520
TAFPDT
TAF
KPDT 050520Z 0506/0606 28009KT P6SM FEW250
     FM051300 16005KT P6SM FEW140
     FM051800 31008KT P6SM FEW140
     FM052200 35012KT P6SM FEW140
     FM060300 03008KT P6SM SKC=



000
FTUS46 KPDT 050341 AAA
TAFALW
TAF AMD
KALW 050341Z 0504/0524 17005KT P6SM SCT250
     FM050500 16007KT P6SM SCT250
     FM051500 22008KT P6SM FEW140
     FM052100 31010KT P6SM FEW140=



000
FTUS46 KPDT 050340 AAA
TAFDLS
TAF AMD
KDLS 050340Z 0504/0524 30017G24KT P6SM SCT250
     FM050600 32008KT P6SM FEW250
     FM051800 32010KT P6SM SKC=



000
FTUS46 KPDT 050340 AAA
TAFDLS
TAF AMD
KDLS 050340Z 0504/0524 30017G24KT P6SM SCT250
     FM050600 32008KT P6SM FEW250
     FM051800 32010KT P6SM SKC=



000
FTUS46 KPDT 042320
TAFPDT
TAF
KPDT 042320Z 0500/0524 30011G17KT P6SM SCT250
     FM050600 12006KT P6SM SKC
     FM051500 27008KT P6SM SKC
     FM051900 31010KT P6SM SKC=



000
FTUS46 KPDT 042320
TAFDLS
TAF
KDLS 042320Z 0500/0524 32017G24KT P6SM SCT250
     FM050600 32008KT P6SM FEW250
     FM051800 32010KT P6SM SKC=



000
FTUS46 KPDT 042320
TAFPSC
TAF
KPSC 042320Z 0500/0524 22008KT P6SM SKC
     FM050500 32010G17KT P6SM FEW140
     FM051200 36010KT P6SM SKC=



000
FTUS46 KPDT 042320
TAFALW
TAF
KALW 042320Z 0500/0524 24009G17KT P6SM SCT250
     FM050500 16007KT P6SM SCT250
     FM051500 22008KT P6SM FEW140
     FM052100 31010KT P6SM FEW140=



000
FTUS46 KPDT 042320
TAFYKM
TAF
KYKM 042320Z 0500/0524 12005KT P6SM SKC
     FM050300 32012G20KT P6SM SKC
     FM051900 VRB06KT P6SM SKC=



000
FTUS46 KPDT 042320
TAFRDM
TAF
KRDM 042320Z 0500/0524 31010KT P6SM FEW100 SCT200
     FM050500 13007KT P6SM SCT200
     FM051800 33010KT P6SM SCT200=



000
FTUS46 KPDT 042320
TAFPSC
TAF
KPSC 042320Z 0500/0524 22008KT P6SM SKC
     FM050500 32010G17KT P6SM FEW140
     FM051200 36010KT P6SM SKC=



000
FTUS46 KPDT 042320
TAFPDT
TAF
KPDT 042320Z 0500/0524 30011G17KT P6SM SCT250
     FM050600 12006KT P6SM SKC
     FM051500 27008KT P6SM SKC
     FM051900 31010KT P6SM SKC=



000
FTUS46 KPDT 042320
TAFALW
TAF
KALW 042320Z 0500/0524 24009G17KT P6SM SCT250
     FM050500 16007KT P6SM SCT250
     FM051500 22008KT P6SM FEW140
     FM052100 31010KT P6SM FEW140=



000
FTUS46 KPDT 042320
TAFYKM
TAF
KYKM 042320Z 0500/0524 12005KT P6SM SKC
     FM050300 32012G20KT P6SM SKC
     FM051900 VRB06KT P6SM SKC=



000
FTUS46 KPDT 042320
TAFRDM
TAF
KRDM 042320Z 0500/0524 31010KT P6SM FEW100 SCT200
     FM050500 13007KT P6SM SCT200
     FM051800 33010KT P6SM SCT200=



000
FTUS46 KPDT 042320
TAFDLS
TAF
KDLS 042320Z 0500/0524 32017G24KT P6SM SCT250
     FM050600 32008KT P6SM FEW250
     FM051800 32010KT P6SM SKC=



000
FTUS46 KPDT 042021 AAA
TAFDLS
TAF AMD
KDLS 042021Z 0420/0518 32017G24KT P6SM SCT250
     FM050600 32008KT P6SM FEW100=



000
FTUS46 KPDT 041720
TAFYKM
TAF
KYKM 041720Z 0418/0518 VRB04KT P6SM SKC
     FM042100 12005KT P6SM SKC
     FM050300 32010KT P6SM SKC=



000
FTUS46 KPDT 041720
TAFALW
TAF
KALW 041720Z 0418/0518 22010KT P6SM SCT250
     FM042100 24007KT P6SM SCT250
     FM050500 16007KT P6SM SKC
     FM051500 22008KT P6SM FEW120=



000
FTUS46 KPDT 041720
TAFYKM
TAF
KYKM 041720Z 0418/0518 VRB04KT P6SM SKC
     FM042100 12005KT P6SM SKC
     FM050300 32010KT P6SM SKC=



000
FTUS46 KPDT 041720
TAFDLS
TAF
KDLS 041720Z 0418/0518 32014KT P6SM FEW250
     FM050600 32008KT P6SM FEW100=



000
FTUS46 KPDT 041720
TAFPSC
TAF
KPSC 041720Z 0418/0518 22008KT P6SM SKC
     FM050100 32006KT P6SM SKC=



000
FTUS46 KPDT 041720
TAFRDM
TAF
KRDM 041720Z 0418/0518 13005KT P6SM SCT200
     FM041900 32010KT P6SM FEW100 SCT200
     FM050500 13007KT P6SM SCT200=



000
FTUS46 KPDT 041720
TAFPDT
TAF
KPDT 041720Z 0418/0518 20006KT P6SM SCT250
     FM041900 30009KT P6SM SCT250
     FM050600 12006KT P6SM SKC
     FM051500 27008KT P6SM FEW120=



    US Dept of Commerce
    National Oceanic and Atmospheric Administration
    National Weather Service
    1325 East West Highway
    Silver Spring, MD 20910
    Page Author: NWS Internet Services Team
Disclaimer
Information Quality
Credits
Glossary
Privacy Policy
Freedom of Information Act (FOIA)
About Us
Career Opportunities